createdAt,value
2023-02-05T00:00:03.896Z,928.90
2023-02-05T00:01:04.051Z,928.89
2023-02-05T00:02:03.979Z,928.93
2023-02-05T00:03:04.160Z,928.91
2023-02-05T00:04:04.084Z,928.90
2023-02-05T00:05:04.096Z,928.90
2023-02-05T00:06:04.111Z,928.92
2023-02-05T00:07:04.004Z,928.94
2023-02-05T00:08:04.014Z,928.96
2023-02-05T00:09:04.146Z,928.99
2023-02-05T00:10:04.050Z,928.98
2023-02-05T00:11:04.048Z,928.99
2023-02-05T00:12:04.096Z,928.99
2023-02-05T00:13:04.202Z,929.04
2023-02-05T00:14:04.087Z,929.02
2023-02-05T00:15:04.222Z,929.02
2023-02-05T00:16:04.237Z,929.02
2023-02-05T00:17:04.117Z,929.06
2023-02-05T00:18:04.266Z,929.04
2023-02-05T00:19:04.281Z,929.04
2023-02-05T00:20:04.159Z,928.99
2023-02-05T00:21:04.302Z,929.02
2023-02-05T00:22:04.196Z,928.97
2023-02-05T00:23:04.329Z,928.97
2023-02-05T00:24:04.340Z,928.97
2023-02-05T00:25:04.356Z,928.98
2023-02-05T00:26:04.380Z,928.97
2023-02-05T00:27:04.383Z,929.02
2023-02-05T00:28:04.377Z,929.06
2023-02-05T00:29:04.410Z,928.98
2023-02-05T00:30:04.298Z,929.04
2023-02-05T00:31:04.566Z,929.06
2023-02-05T00:32:04.455Z,929.08
2023-02-05T00:33:04.326Z,929.13
2023-02-05T00:34:04.342Z,929.11
2023-02-05T00:35:04.494Z,929.11
2023-02-05T00:36:04.369Z,929.11
2023-02-05T00:37:04.516Z,929.07
2023-02-05T00:38:04.402Z,929.10
2023-02-05T00:39:04.428Z,929.13
2023-02-05T00:40:04.432Z,929.16
2023-02-05T00:41:04.568Z,929.13
2023-02-05T00:42:04.455Z,929.17
2023-02-05T00:43:04.592Z,929.20
2023-02-05T00:44:04.484Z,929.17
2023-02-05T00:45:04.617Z,929.14
2023-02-05T00:46:04.543Z,929.14
2023-02-05T00:47:04.646Z,929.19
2023-02-05T00:48:04.661Z,929.17
2023-02-05T00:49:04.670Z,929.20
2023-02-05T00:50:04.558Z,929.26
2023-02-05T00:51:04.696Z,929.25
2023-02-05T00:52:04.576Z,929.25
2023-02-05T00:53:04.589Z,929.22
2023-02-05T00:54:04.640Z,929.24
2023-02-05T00:55:04.752Z,929.23
2023-02-05T00:56:04.638Z,929.28
2023-02-05T00:57:04.777Z,929.29
2023-02-05T00:58:04.790Z,929.28
2023-02-05T00:59:04.684Z,929.31
2023-02-05T01:00:04.684Z,929.32
2023-02-05T01:01:04.858Z,929.36
2023-02-05T01:02:04.706Z,929.32
2023-02-05T01:03:04.742Z,929.33
2023-02-05T01:04:04.873Z,929.38
2023-02-05T01:05:04.931Z,929.31
2023-02-05T01:06:04.760Z,929.31
2023-02-05T01:07:04.913Z,929.30
2023-02-05T01:08:04.804Z,929.29
2023-02-05T01:09:04.943Z,929.32
2023-02-05T01:10:04.963Z,929.29
2023-02-05T01:11:04.961Z,929.29
2023-02-05T01:12:04.862Z,929.27
2023-02-05T01:13:04.860Z,929.30
2023-02-05T01:14:04.889Z,929.26
2023-02-05T01:15:05.014Z,929.29
2023-02-05T01:16:05.002Z,929.25
2023-02-05T01:17:04.931Z,929.29
2023-02-05T01:18:04.943Z,929.27
2023-02-05T01:19:05.069Z,929.25
2023-02-05T01:20:04.955Z,929.28
2023-02-05T01:21:05.092Z,929.29
2023-02-05T01:22:04.972Z,929.28
2023-02-05T01:23:05.012Z,929.33
2023-02-05T01:24:05.149Z,929.26
2023-02-05T01:25:05.181Z,929.22
2023-02-05T01:26:05.158Z,929.17
2023-02-05T01:27:05.172Z,929.18
2023-02-05T01:28:05.089Z,929.18
2023-02-05T01:29:05.073Z,929.15
2023-02-05T01:30:05.093Z,929.14
2023-02-05T01:31:05.293Z,929.10
2023-02-05T01:32:05.232Z,929.13
2023-02-05T01:33:05.115Z,929.14
2023-02-05T01:34:05.148Z,929.17
2023-02-05T01:35:05.272Z,929.15
2023-02-05T01:36:05.154Z,929.16
2023-02-05T01:37:05.312Z,929.12
2023-02-05T01:38:05.191Z,929.15
2023-02-05T01:39:05.212Z,929.18
2023-02-05T01:40:05.224Z,929.19
2023-02-05T01:41:05.346Z,929.20
2023-02-05T01:42:05.224Z,929.22
2023-02-05T01:43:05.369Z,929.18
2023-02-05T01:44:05.257Z,929.21
2023-02-05T01:45:05.393Z,929.19
2023-02-05T01:46:05.328Z,929.21
2023-02-05T01:47:05.427Z,929.22
2023-02-05T01:48:05.305Z,929.19
2023-02-05T01:49:05.317Z,929.18
2023-02-05T01:50:05.351Z,929.17
2023-02-05T01:51:05.468Z,929.16
2023-02-05T01:52:05.353Z,929.16
2023-02-05T01:53:05.494Z,929.20
2023-02-05T01:54:05.373Z,929.15
2023-02-05T01:55:05.525Z,929.15
2023-02-05T01:56:05.404Z,929.12
2023-02-05T01:57:05.553Z,929.12
2023-02-05T01:58:05.568Z,929.10
2023-02-05T01:59:05.578Z,929.11
2023-02-05T02:00:05.448Z,929.14
2023-02-05T02:01:05.478Z,929.11
2023-02-05T02:02:05.504Z,929.10
2023-02-05T02:03:05.635Z,929.11
2023-02-05T02:04:05.503Z,929.04
2023-02-05T02:05:05.746Z,929.08
2023-02-05T02:06:05.531Z,929.02
2023-02-05T02:07:05.670Z,929.04
2023-02-05T02:08:05.693Z,929.00
2023-02-05T02:09:05.704Z,928.96
2023-02-05T02:10:05.711Z,928.95
2023-02-05T02:11:05.726Z,928.98
2023-02-05T02:12:05.604Z,928.94
2023-02-05T02:13:05.753Z,928.95
2023-02-05T02:14:05.638Z,928.93
2023-02-05T02:15:05.641Z,928.93
2023-02-05T02:16:05.680Z,928.91
2023-02-05T02:17:05.806Z,928.88
2023-02-05T02:18:05.814Z,928.88
2023-02-05T02:19:05.827Z,928.89
2023-02-05T02:20:05.711Z,928.84
2023-02-05T02:21:05.852Z,928.86
2023-02-05T02:22:05.863Z,928.83
2023-02-05T02:23:05.876Z,928.79
2023-02-05T02:24:05.757Z,928.79
2023-02-05T02:25:05.791Z,928.77
2023-02-05T02:26:05.798Z,928.77
2023-02-05T02:27:05.928Z,928.74
2023-02-05T02:28:05.975Z,928.73
2023-02-05T02:29:05.838Z,928.71
2023-02-05T02:30:05.854Z,928.72
2023-02-05T02:31:06.048Z,928.73
2023-02-05T02:32:05.868Z,928.74
2023-02-05T02:33:06.003Z,928.74
2023-02-05T02:34:05.889Z,928.75
2023-02-05T02:35:06.030Z,928.70
2023-02-05T02:36:06.047Z,928.71
2023-02-05T02:37:06.055Z,928.71
2023-02-05T02:38:05.946Z,928.64
2023-02-05T02:39:06.087Z,928.60
2023-02-05T02:40:06.093Z,928.61
2023-02-05T02:41:06.108Z,928.62
2023-02-05T02:42:06.013Z,928.64
2023-02-05T02:43:06.131Z,928.64
2023-02-05T02:44:06.022Z,928.66
2023-02-05T02:45:06.032Z,928.64
2023-02-05T02:46:06.049Z,928.61
2023-02-05T02:47:06.195Z,928.64
2023-02-05T02:48:06.070Z,928.65
2023-02-05T02:49:06.211Z,928.64
2023-02-05T02:50:06.232Z,928.63
2023-02-05T02:51:06.128Z,928.62
2023-02-05T02:52:06.139Z,928.64
2023-02-05T02:53:06.265Z,928.62
2023-02-05T02:54:06.279Z,928.64
2023-02-05T02:55:06.305Z,928.61
2023-02-05T02:56:06.182Z,928.57
2023-02-05T02:57:06.190Z,928.60
2023-02-05T02:58:06.206Z,928.57
2023-02-05T02:59:06.368Z,928.52
2023-02-05T03:00:06.357Z,928.54
2023-02-05T03:01:06.448Z,928.50
2023-02-05T03:02:06.267Z,928.50
2023-02-05T03:03:06.286Z,928.50
2023-02-05T03:04:06.329Z,928.48
2023-02-05T03:05:06.420Z,928.49
2023-02-05T03:06:06.434Z,928.46
2023-02-05T03:07:06.445Z,928.48
2023-02-05T03:08:06.334Z,928.46
2023-02-05T03:09:06.468Z,928.46
2023-02-05T03:10:06.487Z,928.45
2023-02-05T03:11:06.365Z,928.39
2023-02-05T03:12:06.508Z,928.36
2023-02-05T03:13:06.394Z,928.38
2023-02-05T03:14:06.411Z,928.40
2023-02-05T03:15:06.415Z,928.43
2023-02-05T03:16:06.605Z,928.37
2023-02-05T03:17:06.444Z,928.39
2023-02-05T03:18:06.586Z,928.35
2023-02-05T03:19:06.469Z,928.38
2023-02-05T03:20:06.498Z,928.32
2023-02-05T03:21:06.503Z,928.33
2023-02-05T03:22:06.635Z,928.38
2023-02-05T03:23:06.529Z,928.38
2023-02-05T03:24:06.662Z,928.43
2023-02-05T03:25:06.672Z,928.43
2023-02-05T03:26:06.685Z,928.43
2023-02-05T03:27:06.569Z,928.45
2023-02-05T03:28:06.735Z,928.43
2023-02-05T03:29:06.600Z,928.46
2023-02-05T03:30:06.736Z,928.47
2023-02-05T03:31:06.739Z,928.46
2023-02-05T03:32:06.759Z,928.45
2023-02-05T03:33:06.643Z,928.42
2023-02-05T03:34:06.705Z,928.41
2023-02-05T03:35:06.669Z,928.41
2023-02-05T03:36:06.815Z,928.39
2023-02-05T03:37:06.691Z,928.44
2023-02-05T03:38:06.835Z,928.41
2023-02-05T03:39:06.737Z,928.35
2023-02-05T03:40:06.728Z,928.35
2023-02-05T03:41:06.738Z,928.39
2023-02-05T03:42:06.889Z,928.32
2023-02-05T03:43:06.766Z,928.33
2023-02-05T03:44:06.909Z,928.31
2023-02-05T03:45:06.799Z,928.29
2023-02-05T03:46:06.873Z,928.30
2023-02-05T03:47:06.948Z,928.31
2023-02-05T03:48:06.960Z,928.33
2023-02-05T03:49:06.854Z,928.27
2023-02-05T03:50:06.894Z,928.30
2023-02-05T03:51:06.880Z,928.26
2023-02-05T03:52:07.014Z,928.32
2023-02-05T03:53:06.892Z,928.28
2023-02-05T03:54:07.036Z,928.32
2023-02-05T03:55:07.044Z,928.32
2023-02-05T03:56:06.927Z,928.33
2023-02-05T03:57:07.073Z,928.31
2023-02-05T03:58:07.079Z,928.29
2023-02-05T03:59:07.125Z,928.31
2023-02-05T04:00:07.113Z,928.28
2023-02-05T04:01:07.035Z,928.27
2023-02-05T04:02:07.072Z,928.28
2023-02-05T04:03:07.017Z,928.25
2023-02-05T04:04:07.152Z,928.25
2023-02-05T04:05:07.054Z,928.28
2023-02-05T04:06:07.184Z,928.29
2023-02-05T04:07:07.188Z,928.30
2023-02-05T04:08:07.202Z,928.31
2023-02-05T04:09:07.215Z,928.29
2023-02-05T04:10:07.227Z,928.27
2023-02-05T04:11:07.106Z,928.24
2023-02-05T04:12:07.251Z,928.26
2023-02-05T04:13:07.264Z,928.26
2023-02-05T04:14:07.276Z,928.28
2023-02-05T04:15:07.163Z,928.29
2023-02-05T04:16:07.229Z,928.26
2023-02-05T04:17:07.310Z,928.27
2023-02-05T04:18:07.324Z,928.26
2023-02-05T04:19:07.206Z,928.24
2023-02-05T04:20:07.348Z,928.19
2023-02-05T04:21:07.367Z,928.20
2023-02-05T04:22:07.378Z,928.16
2023-02-05T04:23:07.252Z,928.21
2023-02-05T04:24:07.476Z,928.24
2023-02-05T04:25:07.294Z,928.23
2023-02-05T04:26:07.306Z,928.26
2023-02-05T04:27:07.304Z,928.22
2023-02-05T04:28:07.521Z,928.26
2023-02-05T04:29:07.338Z,928.25
2023-02-05T04:30:07.484Z,928.24
2023-02-05T04:31:07.403Z,928.21
2023-02-05T04:32:07.505Z,928.17
2023-02-05T04:33:07.513Z,928.17
2023-02-05T04:34:07.528Z,928.21
2023-02-05T04:35:07.418Z,928.24
2023-02-05T04:36:07.416Z,928.14
2023-02-05T04:37:07.572Z,928.16
2023-02-05T04:38:07.581Z,928.11
2023-02-05T04:39:07.461Z,928.12
2023-02-05T04:40:07.603Z,928.14
2023-02-05T04:41:07.493Z,928.13
2023-02-05T04:42:07.642Z,928.13
2023-02-05T04:43:07.639Z,928.10
2023-02-05T04:44:07.659Z,928.07
2023-02-05T04:45:07.533Z,928.08
2023-02-05T04:46:07.571Z,928.06
2023-02-05T04:47:07.564Z,928.07
2023-02-05T04:48:07.702Z,928.10
2023-02-05T04:49:07.731Z,928.10
2023-02-05T04:50:07.733Z,928.09
2023-02-05T04:51:07.606Z,928.07
2023-02-05T04:52:07.627Z,928.07
2023-02-05T04:53:07.632Z,928.06
2023-02-05T04:54:07.781Z,928.07
2023-02-05T04:55:07.662Z,928.07
2023-02-05T04:56:07.820Z,928.10
2023-02-05T04:57:07.690Z,928.11
2023-02-05T04:58:07.715Z,928.13
2023-02-05T04:59:07.704Z,928.07
2023-02-05T05:00:07.851Z,928.10
2023-02-05T05:01:07.777Z,928.07
2023-02-05T05:02:07.768Z,928.08
2023-02-05T05:03:07.888Z,928.03
2023-02-05T05:04:07.792Z,928.04
2023-02-05T05:05:07.786Z,928.06
2023-02-05T05:06:07.933Z,928.05
2023-02-05T05:07:07.816Z,928.01
2023-02-05T05:08:07.957Z,928.00
2023-02-05T05:09:07.964Z,928.05
2023-02-05T05:10:07.981Z,928.04
2023-02-05T05:11:07.988Z,928.04
2023-02-05T05:12:08.019Z,928.03
2023-02-05T05:13:08.011Z,927.99
2023-02-05T05:14:08.022Z,928.03
2023-02-05T05:15:07.910Z,928.06
2023-02-05T05:16:08.132Z,928.00
2023-02-05T05:17:07.938Z,928.06
2023-02-05T05:18:08.075Z,928.09
2023-02-05T05:19:07.953Z,928.07
2023-02-05T05:20:08.100Z,928.07
2023-02-05T05:21:07.988Z,928.07
2023-02-05T05:22:08.135Z,928.05
2023-02-05T05:23:08.135Z,928.03
2023-02-05T05:24:08.150Z,928.06
2023-02-05T05:25:08.037Z,928.08
2023-02-05T05:26:08.069Z,928.06
2023-02-05T05:27:08.055Z,928.02
2023-02-05T05:28:08.219Z,928.07
2023-02-05T05:29:08.073Z,928.07
2023-02-05T05:30:08.223Z,928.05
2023-02-05T05:31:08.176Z,928.01
2023-02-05T05:32:08.151Z,927.99
2023-02-05T05:33:08.124Z,927.99
2023-02-05T05:34:08.273Z,927.97
2023-02-05T05:35:08.282Z,927.95
2023-02-05T05:36:08.348Z,927.94
2023-02-05T05:37:08.176Z,927.90
2023-02-05T05:38:08.205Z,927.91
2023-02-05T05:39:08.200Z,927.90
2023-02-05T05:40:08.348Z,927.89
2023-02-05T05:41:08.230Z,927.91
2023-02-05T05:42:08.373Z,927.89
2023-02-05T05:43:08.275Z,927.85
2023-02-05T05:44:08.269Z,927.86
2023-02-05T05:45:08.302Z,927.89
2023-02-05T05:46:08.503Z,927.90
2023-02-05T05:47:08.308Z,927.83
2023-02-05T05:48:08.452Z,927.86
2023-02-05T05:49:08.340Z,927.87
2023-02-05T05:50:08.474Z,927.88
2023-02-05T05:51:08.486Z,927.85
2023-02-05T05:52:08.501Z,927.87
2023-02-05T05:53:08.384Z,927.83
2023-02-05T05:54:08.388Z,927.81
2023-02-05T05:55:08.532Z,927.81
2023-02-05T05:56:08.544Z,927.82
2023-02-05T05:57:08.435Z,927.84
2023-02-05T05:58:08.570Z,927.86
2023-02-05T05:59:08.471Z,927.83
2023-02-05T06:00:08.460Z,927.80
2023-02-05T06:01:08.480Z,927.79
2023-02-05T06:02:08.652Z,927.78
2023-02-05T06:03:08.510Z,927.77
2023-02-05T06:04:08.542Z,927.75
2023-02-05T06:05:08.521Z,927.77
2023-02-05T06:06:08.666Z,927.75
2023-02-05T06:07:08.562Z,927.77
2023-02-05T06:08:08.688Z,927.79
2023-02-05T06:09:08.577Z,927.74
2023-02-05T06:10:08.721Z,927.75
2023-02-05T06:11:08.765Z,927.76
2023-02-05T06:12:10.064Z,927.74
2023-02-05T06:13:08.617Z,927.73
2023-02-05T06:14:08.789Z,927.74
2023-02-05T06:15:08.674Z,927.70
2023-02-05T06:16:08.730Z,927.72
2023-02-05T06:17:08.667Z,927.68
2023-02-05T06:18:08.825Z,927.66
2023-02-05T06:19:08.706Z,927.59
2023-02-05T06:20:08.723Z,927.62
2023-02-05T06:21:08.850Z,927.58
2023-02-05T06:22:08.872Z,927.53
2023-02-05T06:23:08.759Z,927.49
2023-02-05T06:24:08.886Z,927.41
2023-02-05T06:25:08.899Z,927.45
2023-02-05T06:26:08.912Z,927.47
2023-02-05T06:27:08.809Z,927.48
2023-02-05T06:28:08.861Z,927.44
2023-02-05T06:29:08.948Z,927.44
2023-02-05T06:30:08.961Z,927.42
2023-02-05T06:31:09.162Z,927.34
2023-02-05T06:32:08.984Z,927.41
2023-02-05T06:33:08.866Z,927.43
2023-02-05T06:34:09.019Z,927.40
2023-02-05T06:35:09.022Z,927.45
2023-02-05T06:36:09.035Z,927.44
2023-02-05T06:37:08.922Z,927.46
2023-02-05T06:38:08.946Z,927.47
2023-02-05T06:39:08.960Z,927.51
2023-02-05T06:40:08.950Z,927.50
2023-02-05T06:41:08.970Z,927.54
2023-02-05T06:42:09.111Z,927.59
2023-02-05T06:43:09.003Z,927.64
2023-02-05T06:44:09.136Z,927.61
2023-02-05T06:45:09.148Z,927.65
2023-02-05T06:46:09.171Z,927.64
2023-02-05T06:47:09.047Z,927.65
2023-02-05T06:48:09.182Z,927.66
2023-02-05T06:49:09.070Z,927.65
2023-02-05T06:50:09.093Z,927.65
2023-02-05T06:51:09.088Z,927.69
2023-02-05T06:52:09.231Z,927.69
2023-02-05T06:53:11.528Z,927.73
2023-02-05T06:54:09.256Z,927.69
2023-02-05T06:55:09.151Z,927.71
2023-02-05T06:56:09.154Z,927.68
2023-02-05T06:57:09.300Z,927.64
2023-02-05T06:58:09.308Z,927.65
2023-02-05T06:59:09.199Z,927.60
2023-02-05T07:00:09.346Z,927.64
2023-02-05T07:01:09.212Z,927.59
2023-02-05T07:02:09.359Z,927.61
2023-02-05T07:03:09.372Z,927.58
2023-02-05T07:04:09.382Z,927.60
2023-02-05T07:05:09.269Z,927.61
2023-02-05T07:06:09.276Z,927.62
2023-02-05T07:07:09.424Z,927.59
2023-02-05T07:08:09.436Z,927.59
2023-02-05T07:09:09.329Z,927.62
2023-02-05T07:10:09.466Z,927.55
2023-02-05T07:11:09.356Z,927.58
2023-02-05T07:12:09.364Z,927.60
2023-02-05T07:13:09.361Z,927.57
2023-02-05T07:14:09.526Z,927.55
2023-02-05T07:15:09.407Z,927.57
2023-02-05T07:16:09.538Z,927.60
2023-02-05T07:17:09.557Z,927.58
2023-02-05T07:18:09.557Z,927.61
2023-02-05T07:19:09.435Z,927.61
2023-02-05T07:20:09.587Z,927.66
2023-02-05T07:21:09.476Z,927.68
2023-02-05T07:22:09.614Z,927.71
2023-02-05T07:23:09.486Z,927.75
2023-02-05T07:24:09.634Z,927.77
2023-02-05T07:25:09.647Z,927.71
2023-02-05T07:26:09.541Z,927.74
2023-02-05T07:27:09.671Z,927.74
2023-02-05T07:28:09.745Z,927.71
2023-02-05T07:29:09.696Z,927.74
2023-02-05T07:30:09.595Z,927.72
2023-02-05T07:31:09.769Z,927.75
2023-02-05T07:32:09.778Z,927.70
2023-02-05T07:33:09.619Z,927.72
2023-02-05T07:34:09.669Z,927.80
2023-02-05T07:35:09.654Z,927.82
2023-02-05T07:36:09.782Z,927.81
2023-02-05T07:37:09.793Z,927.82
2023-02-05T07:38:09.671Z,927.86
2023-02-05T07:39:09.815Z,927.85
2023-02-05T07:40:09.725Z,927.89
2023-02-05T07:41:09.845Z,927.86
2023-02-05T07:42:09.852Z,927.88
2023-02-05T07:43:09.864Z,927.90
2023-02-05T07:44:09.750Z,927.92
2023-02-05T07:45:09.769Z,927.92
2023-02-05T07:46:09.770Z,927.92
2023-02-05T07:47:09.937Z,927.92
2023-02-05T07:48:09.924Z,927.90
2023-02-05T07:49:09.809Z,927.93
2023-02-05T07:50:09.856Z,927.92
2023-02-05T07:51:09.960Z,927.92
2023-02-05T07:52:09.873Z,927.97
2023-02-05T07:53:09.984Z,927.96
2023-02-05T07:54:09.888Z,927.97
2023-02-05T07:55:09.894Z,928.00
2023-02-05T07:56:10.021Z,927.98
2023-02-05T07:57:10.035Z,928.01
2023-02-05T07:58:10.046Z,928.00
2023-02-05T07:59:10.066Z,927.99
2023-02-05T08:00:09.934Z,928.01
2023-02-05T08:01:10.095Z,928.06
2023-02-05T08:02:09.987Z,928.04
2023-02-05T08:03:10.111Z,928.01
2023-02-05T08:04:10.159Z,928.03
2023-02-05T08:05:10.000Z,928.05
2023-02-05T08:06:10.070Z,928.04
2023-02-05T08:07:10.158Z,928.05
2023-02-05T08:08:10.040Z,928.05
2023-02-05T08:09:10.181Z,928.03
2023-02-05T08:10:10.194Z,928.07
2023-02-05T08:11:10.092Z,928.09
2023-02-05T08:12:10.093Z,928.12
2023-02-05T08:13:10.232Z,928.13
2023-02-05T08:14:10.108Z,928.14
2023-02-05T08:15:10.260Z,928.15
2023-02-05T08:16:10.158Z,928.17
2023-02-05T08:17:10.145Z,928.20
2023-02-05T08:18:10.178Z,928.18
2023-02-05T08:19:12.576Z,928.23
2023-02-05T08:20:10.323Z,928.26
2023-02-05T08:21:10.331Z,928.25
2023-02-05T08:22:10.244Z,928.22
2023-02-05T08:23:10.221Z,928.26
2023-02-05T08:24:10.238Z,928.25
2023-02-05T08:25:10.378Z,928.27
2023-02-05T08:26:10.391Z,928.27
2023-02-05T08:27:10.404Z,928.30
2023-02-05T08:28:10.330Z,928.33
2023-02-05T08:29:10.431Z,928.29
2023-02-05T08:30:10.307Z,928.28
2023-02-05T08:31:10.321Z,928.33
2023-02-05T08:32:10.328Z,928.35
2023-02-05T08:33:10.475Z,928.30
2023-02-05T08:34:10.502Z,928.33
2023-02-05T08:35:10.503Z,928.35
2023-02-05T08:36:10.408Z,928.31
2023-02-05T08:37:10.526Z,928.30
2023-02-05T08:38:10.539Z,928.30
2023-02-05T08:39:10.550Z,928.33
2023-02-05T08:40:10.439Z,928.33
2023-02-05T08:41:10.463Z,928.36
2023-02-05T08:42:10.586Z,928.39
2023-02-05T08:43:10.597Z,928.42
2023-02-05T08:44:10.488Z,928.40
2023-02-05T08:45:10.627Z,928.37
2023-02-05T08:46:10.616Z,928.39
2023-02-05T08:47:10.650Z,928.41
2023-02-05T08:48:10.548Z,928.43
2023-02-05T08:49:10.669Z,928.41
2023-02-05T08:50:10.560Z,928.44
2023-02-05T08:51:10.560Z,928.43
2023-02-05T08:52:10.572Z,928.44
2023-02-05T08:53:10.728Z,928.47
2023-02-05T08:54:10.627Z,928.49
2023-02-05T08:55:10.746Z,928.49
2023-02-05T08:56:10.884Z,928.54
2023-02-05T08:57:10.647Z,928.53
2023-02-05T08:58:10.665Z,928.53
2023-02-05T08:59:10.790Z,928.54
2023-02-05T09:00:10.687Z,928.53
2023-02-05T09:01:10.892Z,928.54
2023-02-05T09:02:10.712Z,928.52
2023-02-05T09:03:10.882Z,928.52
2023-02-05T09:04:10.808Z,928.54
2023-02-05T09:05:10.900Z,928.50
2023-02-05T09:06:10.749Z,928.52
2023-02-05T09:07:10.765Z,928.54
2023-02-05T09:08:10.773Z,928.59
2023-02-05T09:09:10.923Z,928.59
2023-02-05T09:10:10.836Z,928.54
2023-02-05T09:11:11.822Z,928.59
2023-02-05T09:12:10.883Z,928.62
2023-02-05T09:13:10.973Z,928.63
2023-02-05T09:14:10.856Z,928.66
2023-02-05T09:15:10.999Z,928.66
2023-02-05T09:16:10.869Z,928.64
2023-02-05T09:17:11.015Z,928.69
2023-02-05T09:18:10.918Z,928.68
2023-02-05T09:19:10.911Z,928.71
2023-02-05T09:20:10.925Z,928.73
2023-02-05T09:21:11.075Z,928.73
2023-02-05T09:22:11.096Z,928.74
2023-02-05T09:23:11.092Z,928.74
2023-02-05T09:24:10.983Z,928.74
2023-02-05T09:25:11.120Z,928.74
2023-02-05T09:26:11.143Z,928.72
2023-02-05T09:27:11.146Z,928.74
2023-02-05T09:28:11.059Z,928.70
2023-02-05T09:29:11.057Z,928.76
2023-02-05T09:30:11.131Z,928.79
2023-02-05T09:31:11.267Z,928.82
2023-02-05T09:32:11.096Z,928.81
2023-02-05T09:33:11.227Z,928.83
2023-02-05T09:34:11.109Z,928.82
2023-02-05T09:35:11.249Z,928.80
2023-02-05T09:36:11.134Z,928.84
2023-02-05T09:37:11.278Z,928.83
2023-02-05T09:38:11.185Z,928.80
2023-02-05T09:39:18.455Z,928.80
2023-02-05T09:40:21.008Z,928.88
2023-02-05T09:41:11.213Z,928.87
2023-02-05T09:42:11.332Z,928.86
2023-02-05T09:43:11.231Z,928.88
2023-02-05T09:44:11.241Z,928.81
2023-02-05T09:45:11.385Z,928.86
2023-02-05T09:46:11.313Z,928.87
2023-02-05T09:47:11.283Z,928.92
2023-02-05T09:48:11.307Z,928.92
2023-02-05T09:49:11.447Z,928.90
2023-02-05T09:50:11.455Z,928.87
2023-02-05T09:51:11.465Z,928.86
2023-02-05T09:52:11.345Z,928.90
2023-02-05T09:53:11.502Z,928.92
2023-02-05T09:54:11.395Z,928.90
2023-02-05T09:55:11.530Z,928.94
2023-02-05T09:56:11.532Z,928.85
2023-02-05T09:57:11.547Z,928.87
2023-02-05T09:58:11.473Z,928.84
2023-02-05T09:59:11.574Z,928.87
2023-02-05T10:00:11.474Z,928.86
2023-02-05T10:01:11.627Z,928.90
2023-02-05T10:02:11.618Z,928.83
2023-02-05T10:03:11.507Z,928.86
2023-02-05T10:04:11.614Z,928.90
2023-02-05T10:05:11.659Z,928.97
2023-02-05T10:06:11.542Z,928.95
2023-02-05T10:07:11.686Z,928.98
2023-02-05T10:08:11.701Z,929.03
2023-02-05T10:09:11.582Z,929.02
2023-02-05T10:10:11.617Z,929.01
2023-02-05T10:11:11.747Z,929.05
2023-02-05T10:12:11.622Z,929.14
2023-02-05T10:13:11.771Z,929.11
2023-02-05T10:14:11.704Z,929.16
2023-02-05T10:15:11.688Z,929.15
2023-02-05T10:16:11.823Z,929.24
2023-02-05T10:17:11.835Z,929.22
2023-02-05T10:18:11.715Z,929.28
2023-02-05T10:19:11.860Z,929.24
2023-02-05T10:20:11.752Z,929.26
2023-02-05T10:21:11.906Z,929.27
2023-02-05T10:22:11.970Z,929.31
2023-02-05T10:23:11.918Z,929.31
2023-02-05T10:24:11.798Z,929.29
2023-02-05T10:25:11.947Z,929.29
2023-02-05T10:26:11.858Z,929.22
2023-02-05T10:27:11.982Z,929.24
2023-02-05T10:28:12.015Z,929.28
2023-02-05T10:29:11.886Z,929.28
2023-02-05T10:30:11.927Z,929.34
2023-02-05T10:31:12.185Z,929.44
2023-02-05T10:32:11.943Z,929.41
2023-02-05T10:33:12.078Z,929.46
2023-02-05T10:34:12.091Z,929.42
2023-02-05T10:35:11.979Z,929.41
2023-02-05T10:36:11.992Z,929.44
2023-02-05T10:37:12.145Z,929.45
2023-02-05T10:38:12.027Z,929.42
2023-02-05T10:39:12.048Z,929.46
2023-02-05T10:40:12.064Z,929.48
2023-02-05T10:41:12.202Z,929.46
2023-02-05T10:42:12.084Z,929.48
2023-02-05T10:43:12.103Z,929.47
2023-02-05T10:44:12.125Z,929.49
2023-02-05T10:45:12.262Z,929.51
2023-02-05T10:46:12.326Z,929.58
2023-02-05T10:47:12.295Z,929.66
2023-02-05T10:48:12.167Z,929.63
2023-02-05T10:49:12.324Z,929.58
2023-02-05T10:50:12.245Z,929.64
2023-02-05T10:51:12.342Z,929.63
2023-02-05T10:52:12.224Z,929.66
2023-02-05T10:53:12.373Z,929.61
2023-02-05T10:54:12.251Z,929.66
2023-02-05T10:55:12.281Z,929.65
2023-02-05T10:56:12.412Z,929.63
2023-02-05T10:57:12.428Z,929.65
2023-02-05T10:58:12.309Z,929.66
2023-02-05T10:59:12.455Z,929.67
2023-02-05T11:00:12.381Z,929.73
2023-02-05T11:01:12.483Z,929.71
2023-02-05T11:02:12.386Z,929.75
2023-02-05T11:03:12.507Z,929.69
2023-02-05T11:04:12.529Z,929.69
2023-02-05T11:05:12.401Z,929.68
2023-02-05T11:06:12.548Z,929.68
2023-02-05T11:07:12.561Z,929.73
2023-02-05T11:08:12.576Z,929.72
2023-02-05T11:09:12.586Z,929.73
2023-02-05T11:10:12.488Z,929.74
2023-02-05T11:11:12.612Z,929.72
2023-02-05T11:12:12.492Z,929.70
2023-02-05T11:13:12.646Z,929.71
2023-02-05T11:14:12.525Z,929.76
2023-02-05T11:15:12.666Z,929.75
2023-02-05T11:16:12.629Z,929.74
2023-02-05T11:17:12.689Z,929.78
2023-02-05T11:18:12.613Z,929.75
2023-02-05T11:19:14.777Z,929.76
2023-02-05T11:20:12.730Z,929.71
2023-02-05T11:21:12.624Z,929.74
2023-02-05T11:22:12.627Z,929.74
2023-02-05T11:23:12.769Z,929.72
2023-02-05T11:24:12.649Z,929.72
2023-02-05T11:25:12.800Z,929.74
2023-02-05T11:26:12.679Z,929.72
2023-02-05T11:27:12.823Z,929.77
2023-02-05T11:28:12.711Z,929.77
2023-02-05T11:29:12.849Z,929.80
2023-02-05T11:30:12.732Z,929.71
2023-02-05T11:31:12.800Z,929.70
2023-02-05T11:32:13.965Z,929.72
2023-02-05T11:33:12.906Z,929.77
2023-02-05T11:34:12.821Z,929.79
2023-02-05T11:35:12.933Z,929.76
2023-02-05T11:36:12.815Z,929.76
2023-02-05T11:37:12.963Z,929.88
2023-02-05T11:38:12.862Z,929.72
2023-02-05T11:39:12.996Z,929.74
2023-02-05T11:40:13.010Z,929.73
2023-02-05T11:41:12.914Z,929.72
2023-02-05T11:42:12.933Z,929.75
2023-02-05T11:43:12.927Z,929.70
2023-02-05T11:44:13.074Z,929.70
2023-02-05T11:45:12.961Z,929.73
2023-02-05T11:46:13.154Z,929.75
2023-02-05T11:47:12.998Z,929.78
2023-02-05T11:48:13.149Z,929.75
2023-02-05T11:49:13.167Z,929.75
2023-02-05T11:50:13.173Z,929.68
2023-02-05T11:51:13.057Z,929.66
2023-02-05T11:52:13.206Z,929.69
2023-02-05T11:53:13.083Z,929.75
2023-02-05T11:54:13.238Z,929.70
2023-02-05T11:55:13.120Z,929.77
2023-02-05T11:56:13.268Z,929.74
2023-02-05T11:57:13.178Z,929.73
2023-02-05T11:58:13.186Z,929.77
2023-02-05T11:59:13.197Z,929.82
2023-02-05T12:00:13.335Z,929.84
2023-02-05T12:01:13.223Z,929.85
2023-02-05T12:02:13.400Z,929.87
2023-02-05T12:03:13.301Z,930.15
2023-02-05T12:04:13.397Z,930.15
2023-02-05T12:05:13.453Z,930.04
2023-02-05T12:06:13.434Z,929.92
2023-02-05T12:07:13.443Z,929.95
2023-02-05T12:08:13.474Z,929.93
2023-02-05T12:09:13.348Z,929.88
2023-02-05T12:10:13.380Z,929.91
2023-02-05T12:11:13.513Z,929.98
2023-02-05T12:12:13.528Z,929.84
2023-02-05T12:13:13.543Z,929.77
2023-02-05T12:14:13.570Z,929.77
2023-02-05T12:15:13.460Z,929.80
2023-02-05T12:16:13.629Z,929.87
2023-02-05T12:17:13.481Z,929.81
2023-02-05T12:18:13.634Z,929.98
2023-02-05T12:19:13.528Z,929.93
2023-02-05T12:20:13.541Z,929.97
2023-02-05T12:21:13.560Z,929.88
2023-02-05T12:22:13.704Z,929.88
2023-02-05T12:23:13.589Z,929.84
2023-02-05T12:24:13.741Z,929.85
2023-02-05T12:25:13.641Z,929.85
2023-02-05T12:26:13.654Z,929.82
2023-02-05T12:27:13.796Z,929.84
2023-02-05T12:28:13.837Z,929.87